sensor_id;sensor_type;location;lat;lon;timestamp;pressure;altitude;pressure_sealevel;temperature
69435;BMP180;56625;54.322;18.582;2022-10-16T00:01:44;100545.00;;;13.30
69435;BMP180;56625;54.322;18.582;2022-10-16T00:04:12;100542.20;;;13.24
69435;BMP180;56625;54.322;18.582;2022-10-16T00:06:41;100542.00;;;13.20
69435;BMP180;56625;54.322;18.582;2022-10-16T00:09:09;100541.00;;;13.20
69435;BMP180;56625;54.322;18.582;2022-10-16T00:11:39;100536.40;;;13.16
69435;BMP180;56625;54.322;18.582;2022-10-16T00:14:13;100537.40;;;13.20
69435;BMP180;56625;54.322;18.582;2022-10-16T00:16:44;100543.60;;;13.30
69435;BMP180;56625;54.322;18.582;2022-10-16T00:19:12;100546.20;;;13.40
69435;BMP180;56625;54.322;18.582;2022-10-16T00:21:40;100546.20;;;13.50
69435;BMP180;56625;54.322;18.582;2022-10-16T00:24:09;100546.20;;;13.60
69435;BMP180;56625;54.322;18.582;2022-10-16T00:26:39;100543.80;;;13.70
69435;BMP180;56625;54.322;18.582;2022-10-16T00:29:08;100539.80;;;13.80
69435;BMP180;56625;54.322;18.582;2022-10-16T00:31:36;100554.00;;;13.80
69435;BMP180;56625;54.322;18.582;2022-10-16T00:34:03;100551.80;;;13.90
69435;BMP180;56625;54.322;18.582;2022-10-16T00:36:31;100550.20;;;13.90
69435;BMP180;56625;54.322;18.582;2022-10-16T00:38:59;100542.80;;;13.90
69435;BMP180;56625;54.322;18.582;2022-10-16T00:41:30;100543.40;;;13.90
69435;BMP180;56625;54.322;18.582;2022-10-16T00:44:02;100551.40;;;14.00
69435;BMP180;56625;54.322;18.582;2022-10-16T00:46:41;100556.00;;;14.00
69435;BMP180;56625;54.322;18.582;2022-10-16T00:49:14;100562.20;;;14.00
69435;BMP180;56625;54.322;18.582;2022-10-16T00:51:47;100560.80;;;14.00
69435;BMP180;56625;54.322;18.582;2022-10-16T00:54:22;100566.20;;;14.02
69435;BMP180;56625;54.322;18.582;2022-10-16T00:56:52;100570.20;;;14.08
69435;BMP180;56625;54.322;18.582;2022-10-16T00:59:29;100565.80;;;14.04
69435;BMP180;56625;54.322;18.582;2022-10-16T01:01:58;100561.80;;;14.00
69435;BMP180;56625;54.322;18.582;2022-10-16T01:04:32;100565.00;;;14.02
69435;BMP180;56625;54.322;18.582;2022-10-16T01:07:16;100564.00;;;14.00
69435;BMP180;56625;54.322;18.582;2022-10-16T01:10:37;100563.60;;;14.00
69435;BMP180;56625;54.322;18.582;2022-10-16T01:13:10;100550.20;;;14.00
69435;BMP180;56625;54.322;18.582;2022-10-16T01:16:04;100553.20;;;14.00
69435;BMP180;56625;54.322;18.582;2022-10-16T01:18:43;100546.40;;;14.00
69435;BMP180;56625;54.322;18.582;2022-10-16T01:21:35;100552.60;;;14.10
69435;BMP180;56625;54.322;18.582;2022-10-16T01:29:53;100555.80;;;14.10
69435;BMP180;56625;54.322;18.582;2022-10-16T01:32:33;100554.20;;;14.10
69435;BMP180;56625;54.322;18.582;2022-10-16T01:35:21;100558.00;;;14.18
69435;BMP180;56625;54.322;18.582;2022-10-16T01:38:10;100559.40;;;14.20
69435;BMP180;56625;54.322;18.582;2022-10-16T01:40:47;100561.40;;;14.20
69435;BMP180;56625;54.322;18.582;2022-10-16T01:43:24;100564.20;;;14.22
69435;BMP180;56625;54.322;18.582;2022-10-16T01:45:53;100568.80;;;14.30
69435;BMP180;56625;54.322;18.582;2022-10-16T01:48:23;100567.40;;;14.30
69435;BMP180;56625;54.322;18.582;2022-10-16T01:51:08;100566.20;;;14.30
69435;BMP180;56625;54.322;18.582;2022-10-16T01:53:39;100577.20;;;14.30
69435;BMP180;56625;54.322;18.582;2022-10-16T01:56:12;100577.00;;;14.30
69435;BMP180;56625;54.322;18.582;2022-10-16T01:58:51;100577.80;;;14.40
69435;BMP180;56625;54.322;18.582;2022-10-16T02:01:25;100580.20;;;14.40
69435;BMP180;56625;54.322;18.582;2022-10-16T02:04:01;100569.40;;;14.50
69435;BMP180;56625;54.322;18.582;2022-10-16T02:06:30;100565.60;;;14.50
69435;BMP180;56625;54.322;18.582;2022-10-16T02:08:59;100560.00;;;14.50
69435;BMP180;56625;54.322;18.582;2022-10-16T02:11:26;100553.60;;;14.50
69435;BMP180;56625;54.322;18.582;2022-10-16T02:14:01;100552.40;;;14.50
69435;BMP180;56625;54.322;18.582;2022-10-16T02:16:43;100549.60;;;14.50
69435;BMP180;56625;54.322;18.582;2022-10-16T02:19:14;100552.00;;;14.50
69435;BMP180;56625;54.322;18.582;2022-10-16T02:21:56;100554.60;;;14.40
69435;BMP180;56625;54.322;18.582;2022-10-16T02:27:57;100544.60;;;14.40
69435;BMP180;56625;54.322;18.582;2022-10-16T02:30:30;100545.60;;;14.30
69435;BMP180;56625;54.322;18.582;2022-10-16T02:33:02;100550.40;;;14.30
69435;BMP180;56625;54.322;18.582;2022-10-16T02:35:31;100551.40;;;14.30
69435;BMP180;56625;54.322;18.582;2022-10-16T02:37:59;100542.40;;;14.24
69435;BMP180;56625;54.322;18.582;2022-10-16T02:40:28;100542.60;;;14.20
69435;BMP180;56625;54.322;18.582;2022-10-16T02:42:56;100545.80;;;14.20
69435;BMP180;56625;54.322;18.582;2022-10-16T02:45:24;100544.00;;;14.20
69435;BMP180;56625;54.322;18.582;2022-10-16T02:47:52;100544.60;;;14.14
69435;BMP180;56625;54.322;18.582;2022-10-16T02:50:20;100547.20;;;14.10
69435;BMP180;56625;54.322;18.582;2022-10-16T02:52:48;100562.40;;;14.10
69435;BMP180;56625;54.322;18.582;2022-10-16T02:55:16;100557.00;;;14.10
69435;BMP180;56625;54.322;18.582;2022-10-16T02:57:44;100554.20;;;14.10
69435;BMP180;56625;54.322;18.582;2022-10-16T03:00:15;100554.80;;;14.10
69435;BMP180;56625;54.322;18.582;2022-10-16T03:02:44;100556.60;;;14.10
69435;BMP180;56625;54.322;18.582;2022-10-16T03:05:12;100559.40;;;14.02
69435;BMP180;56625;54.322;18.582;2022-10-16T03:07:40;100552.40;;;14.00
69435;BMP180;56625;54.322;18.582;2022-10-16T03:10:08;100546.00;;;14.02
69435;BMP180;56625;54.322;18.582;2022-10-16T03:12:36;100552.60;;;14.02
69435;BMP180;56625;54.322;18.582;2022-10-16T03:15:04;100542.20;;;14.08
69435;BMP180;56625;54.322;18.582;2022-10-16T03:17:32;100545.80;;;14.02
69435;BMP180;56625;54.322;18.582;2022-10-16T03:20:00;100551.60;;;14.04
69435;BMP180;56625;54.322;18.582;2022-10-16T03:22:28;100552.60;;;14.10
69435;BMP180;56625;54.322;18.582;2022-10-16T03:24:56;100546.80;;;14.10
69435;BMP180;56625;54.322;18.582;2022-10-16T03:27:24;100542.40;;;14.10
69435;BMP180;56625;54.322;18.582;2022-10-16T03:29:53;100538.60;;;14.10
69435;BMP180;56625;54.322;18.582;2022-10-16T03:32:20;100545.60;;;14.10
69435;BMP180;56625;54.322;18.582;2022-10-16T03:34:49;100559.60;;;14.10
69435;BMP180;56625;54.322;18.582;2022-10-16T03:37:17;100560.00;;;14.10
69435;BMP180;56625;54.322;18.582;2022-10-16T03:39:44;100551.40;;;14.20
69435;BMP180;56625;54.322;18.582;2022-10-16T03:42:12;100550.60;;;14.20
69435;BMP180;56625;54.322;18.582;2022-10-16T03:44:40;100557.20;;;14.20
69435;BMP180;56625;54.322;18.582;2022-10-16T03:47:08;100554.60;;;14.20
69435;BMP180;56625;54.322;18.582;2022-10-16T03:49:36;100549.00;;;14.20
69435;BMP180;56625;54.322;18.582;2022-10-16T03:52:04;100556.80;;;14.20
69435;BMP180;56625;54.322;18.582;2022-10-16T03:54:32;100547.40;;;14.20
69435;BMP180;56625;54.322;18.582;2022-10-16T03:56:59;100548.20;;;14.20
69435;BMP180;56625;54.322;18.582;2022-10-16T03:59:27;100547.20;;;14.20
69435;BMP180;56625;54.322;18.582;2022-10-16T04:01:55;100546.60;;;14.20
69435;BMP180;56625;54.322;18.582;2022-10-16T04:04:23;100546.40;;;14.20
69435;BMP180;56625;54.322;18.582;2022-10-16T04:06:51;100541.00;;;14.16
69435;BMP180;56625;54.322;18.582;2022-10-16T04:09:19;100537.00;;;14.16
69435;BMP180;56625;54.322;18.582;2022-10-16T04:11:47;100539.80;;;14.10
69435;BMP180;56625;54.322;18.582;2022-10-16T04:14:15;100545.20;;;14.12
69435;BMP180;56625;54.322;18.582;2022-10-16T04:16:42;100555.60;;;14.10
69435;BMP180;56625;54.322;18.582;2022-10-16T04:19:10;100565.40;;;14.12
69435;BMP180;56625;54.322;18.582;2022-10-16T04:21:38;100566.20;;;14.10
69435;BMP180;56625;54.322;18.582;2022-10-16T04:24:06;100570.20;;;14.20
69435;BMP180;56625;54.322;18.582;2022-10-16T04:26:34;100565.80;;;14.20
69435;BMP180;56625;54.322;18.582;2022-10-16T04:29:02;100563.40;;;14.20
69435;BMP180;56625;54.322;18.582;2022-10-16T04:31:29;100564.20;;;14.20
69435;BMP180;56625;54.322;18.582;2022-10-16T04:33:57;100564.00;;;14.20
69435;BMP180;56625;54.322;18.582;2022-10-16T04:36:25;100565.40;;;14.24
69435;BMP180;56625;54.322;18.582;2022-10-16T04:38:55;100569.80;;;14.30
69435;BMP180;56625;54.322;18.582;2022-10-16T04:41:23;100576.80;;;14.30
69435;BMP180;56625;54.322;18.582;2022-10-16T04:43:51;100571.40;;;14.30
69435;BMP180;56625;54.322;18.582;2022-10-16T04:46:19;100572.60;;;14.30
69435;BMP180;56625;54.322;18.582;2022-10-16T04:48:47;100569.20;;;14.30
69435;BMP180;56625;54.322;18.582;2022-10-16T04:51:14;100560.80;;;14.30
69435;BMP180;56625;54.322;18.582;2022-10-16T04:53:42;100569.00;;;14.30
69435;BMP180;56625;54.322;18.582;2022-10-16T04:56:10;100575.00;;;14.30
69435;BMP180;56625;54.322;18.582;2022-10-16T04:58:38;100572.40;;;14.30
69435;BMP180;56625;54.322;18.582;2022-10-16T05:01:06;100576.40;;;14.30
69435;BMP180;56625;54.322;18.582;2022-10-16T05:03:33;100576.40;;;14.30
69435;BMP180;56625;54.322;18.582;2022-10-16T05:06:01;100576.80;;;14.30
69435;BMP180;56625;54.322;18.582;2022-10-16T05:08:31;100576.80;;;14.30
69435;BMP180;56625;54.322;18.582;2022-10-16T05:10:59;100577.40;;;14.30
69435;BMP180;56625;54.322;18.582;2022-10-16T05:13:27;100573.20;;;14.30
69435;BMP180;56625;54.322;18.582;2022-10-16T05:15:55;100564.20;;;14.36
69435;BMP180;56625;54.322;18.582;2022-10-16T05:18:23;100569.80;;;14.34
69435;BMP180;56625;54.322;18.582;2022-10-16T05:20:51;100574.00;;;14.36
69435;BMP180;56625;54.322;18.582;2022-10-16T05:23:18;100565.60;;;14.40
69435;BMP180;56625;54.322;18.582;2022-10-16T05:25:57;100563.40;;;14.40
69435;BMP180;56625;54.322;18.582;2022-10-16T05:28:28;100575.40;;;14.32
69435;BMP180;56625;54.322;18.582;2022-10-16T05:30:57;100582.20;;;14.30
69435;BMP180;56625;54.322;18.582;2022-10-16T05:33:25;100582.20;;;14.30
69435;BMP180;56625;54.322;18.582;2022-10-16T05:35:53;100588.80;;;14.30
69435;BMP180;56625;54.322;18.582;2022-10-16T05:38:21;100583.00;;;14.30
69435;BMP180;56625;54.322;18.582;2022-10-16T05:40:52;100586.60;;;14.40
69435;BMP180;56625;54.322;18.582;2022-10-16T05:43:20;100578.60;;;14.40
69435;BMP180;56625;54.322;18.582;2022-10-16T05:46:02;100586.40;;;14.40
69435;BMP180;56625;54.322;18.582;2022-10-16T05:48:32;100591.40;;;14.40
69435;BMP180;56625;54.322;18.582;2022-10-16T05:51:06;100590.00;;;14.40
69435;BMP180;56625;54.322;18.582;2022-10-16T05:53:36;100599.00;;;14.40
69435;BMP180;56625;54.322;18.582;2022-10-16T05:56:08;100598.00;;;14.40
69435;BMP180;56625;54.322;18.582;2022-10-16T05:58:38;100603.00;;;14.40
69435;BMP180;56625;54.322;18.582;2022-10-16T06:01:17;100601.00;;;14.48
69435;BMP180;56625;54.322;18.582;2022-10-16T06:03:45;100607.40;;;14.50
69435;BMP180;56625;54.322;18.582;2022-10-16T06:06:20;100621.40;;;14.48
69435;BMP180;56625;54.322;18.582;2022-10-16T06:08:49;100625.20;;;14.46
69435;BMP180;56625;54.322;18.582;2022-10-16T06:11:27;100623.40;;;14.48
69435;BMP180;56625;54.322;18.582;2022-10-16T06:13:59;100618.40;;;14.50
69435;BMP180;56625;54.322;18.582;2022-10-16T06:16:37;100630.40;;;14.50
69435;BMP180;56625;54.322;18.582;2022-10-16T06:19:05;100629.20;;;14.50
69435;BMP180;56625;54.322;18.582;2022-10-16T06:21:34;100634.60;;;14.50
69435;BMP180;56625;54.322;18.582;2022-10-16T06:24:02;100640.60;;;14.50
69435;BMP180;56625;54.322;18.582;2022-10-16T06:26:31;100648.20;;;14.50
69435;BMP180;56625;54.322;18.582;2022-10-16T06:28:59;100655.00;;;14.50
69435;BMP180;56625;54.322;18.582;2022-10-16T06:31:28;100654.60;;;14.58
69435;BMP180;56625;54.322;18.582;2022-10-16T06:34:00;100654.40;;;14.60
69435;BMP180;56625;54.322;18.582;2022-10-16T06:36:28;100656.40;;;14.60
69435;BMP180;56625;54.322;18.582;2022-10-16T06:38:56;100674.40;;;14.60
69435;BMP180;56625;54.322;18.582;2022-10-16T06:41:24;100669.60;;;14.62
69435;BMP180;56625;54.322;18.582;2022-10-16T06:43:51;100670.20;;;14.64
69435;BMP180;56625;54.322;18.582;2022-10-16T06:46:23;100670.40;;;14.70
69435;BMP180;56625;54.322;18.582;2022-10-16T06:48:53;100664.40;;;14.70
69435;BMP180;56625;54.322;18.582;2022-10-16T06:51:23;100663.40;;;14.70
69435;BMP180;56625;54.322;18.582;2022-10-16T06:53:54;100676.20;;;14.70
69435;BMP180;56625;54.322;18.582;2022-10-16T06:56:33;100666.60;;;14.70
69435;BMP180;56625;54.322;18.582;2022-10-16T06:59:02;100672.00;;;14.62
69435;BMP180;56625;54.322;18.582;2022-10-16T07:01:31;100661.40;;;14.66
69435;BMP180;56625;54.322;18.582;2022-10-16T07:04:00;100672.80;;;14.68
69435;BMP180;56625;54.322;18.582;2022-10-16T07:06:32;100671.20;;;14.70
69435;BMP180;56625;54.322;18.582;2022-10-16T07:09:05;100673.00;;;14.70
69435;BMP180;56625;54.322;18.582;2022-10-16T07:11:34;100669.40;;;14.80
69435;BMP180;56625;54.322;18.582;2022-10-16T07:14:04;100669.00;;;14.88
69435;BMP180;56625;54.322;18.582;2022-10-16T07:16:32;100670.40;;;14.90
69435;BMP180;56625;54.322;18.582;2022-10-16T07:19:03;100668.60;;;14.90
69435;BMP180;56625;54.322;18.582;2022-10-16T07:21:34;100660.40;;;15.00
69435;BMP180;56625;54.322;18.582;2022-10-16T07:24:12;100661.00;;;15.00
69435;BMP180;56625;54.322;18.582;2022-10-16T07:26:43;100673.40;;;15.02
69435;BMP180;56625;54.322;18.582;2022-10-16T07:29:19;100676.80;;;15.00
69435;BMP180;56625;54.322;18.582;2022-10-16T07:31:48;100671.00;;;15.00
69435;BMP180;56625;54.322;18.582;2022-10-16T07:34:20;100680.20;;;15.00
69435;BMP180;56625;54.322;18.582;2022-10-16T07:36:50;100677.40;;;15.00
69435;BMP180;56625;54.322;18.582;2022-10-16T07:39:19;100682.40;;;15.04
69435;BMP180;56625;54.322;18.582;2022-10-16T07:41:46;100694.20;;;15.00
69435;BMP180;56625;54.322;18.582;2022-10-16T07:44:15;100694.00;;;15.00
69435;BMP180;56625;54.322;18.582;2022-10-16T07:46:43;100699.20;;;15.00
69435;BMP180;56625;54.322;18.582;2022-10-16T07:49:11;100700.00;;;15.00
69435;BMP180;56625;54.322;18.582;2022-10-16T07:51:39;100697.20;;;15.00
69435;BMP180;56625;54.322;18.582;2022-10-16T07:54:09;100698.80;;;15.10
69435;BMP180;56625;54.322;18.582;2022-10-16T07:56:37;100696.40;;;15.10
69435;BMP180;56625;54.322;18.582;2022-10-16T07:59:10;100697.60;;;15.20
69435;BMP180;56625;54.322;18.582;2022-10-16T08:01:38;100695.40;;;15.20
69435;BMP180;56625;54.322;18.582;2022-10-16T08:04:07;100697.80;;;15.24
69435;BMP180;56625;54.322;18.582;2022-10-16T08:06:38;100709.60;;;15.24
69435;BMP180;56625;54.322;18.582;2022-10-16T08:09:08;100719.40;;;15.28
69435;BMP180;56625;54.322;18.582;2022-10-16T08:11:36;100722.80;;;15.30
69435;BMP180;56625;54.322;18.582;2022-10-16T08:14:04;100729.80;;;15.30
69435;BMP180;56625;54.322;18.582;2022-10-16T08:16:32;100741.00;;;15.30
69435;BMP180;56625;54.322;18.582;2022-10-16T08:19:00;100741.20;;;15.30
69435;BMP180;56625;54.322;18.582;2022-10-16T08:21:27;100747.20;;;15.30
69435;BMP180;56625;54.322;18.582;2022-10-16T08:23:55;100744.60;;;15.30
69435;BMP180;56625;54.322;18.582;2022-10-16T08:26:26;100748.20;;;15.34
69435;BMP180;56625;54.322;18.582;2022-10-16T08:28:57;100744.00;;;15.40
69435;BMP180;56625;54.322;18.582;2022-10-16T08:31:27;100738.80;;;15.40
69435;BMP180;56625;54.322;18.582;2022-10-16T08:34:00;100744.80;;;15.40
69435;BMP180;56625;54.322;18.582;2022-10-16T08:36:28;100746.00;;;15.40
69435;BMP180;56625;54.322;18.582;2022-10-16T08:38:56;100746.60;;;15.60
69435;BMP180;56625;54.322;18.582;2022-10-16T08:41:52;100753.00;;;15.60
69435;BMP180;56625;54.322;18.582;2022-10-16T08:44:35;100754.40;;;15.58
69435;BMP180;56625;54.322;18.582;2022-10-16T08:47:21;100760.40;;;15.50
69435;BMP180;56625;54.322;18.582;2022-10-16T08:50:02;100755.80;;;15.50
69435;BMP180;56625;54.322;18.582;2022-10-16T08:52:34;100757.80;;;15.50
69435;BMP180;56625;54.322;18.582;2022-10-16T08:55:04;100759.40;;;15.50
69435;BMP180;56625;54.322;18.582;2022-10-16T08:57:32;100761.00;;;15.50
69435;BMP180;56625;54.322;18.582;2022-10-16T09:00:12;100764.60;;;15.50
69435;BMP180;56625;54.322;18.582;2022-10-16T09:02:52;100771.40;;;15.50
69435;BMP180;56625;54.322;18.582;2022-10-16T09:05:45;100767.80;;;15.50
69435;BMP180;56625;54.322;18.582;2022-10-16T09:11:44;100765.20;;;15.60
69435;BMP180;56625;54.322;18.582;2022-10-16T09:20:34;100763.40;;;15.70
69435;BMP180;56625;54.322;18.582;2022-10-16T09:25:33;100767.60;;;15.70
69435;BMP180;56625;54.322;18.582;2022-10-16T09:28:02;100769.20;;;15.70
69435;BMP180;56625;54.322;18.582;2022-10-16T09:30:30;100766.40;;;15.78
69435;BMP180;56625;54.322;18.582;2022-10-16T09:32:59;100761.00;;;15.78
69435;BMP180;56625;54.322;18.582;2022-10-16T09:38:03;100761.60;;;15.80
69435;BMP180;56625;54.322;18.582;2022-10-16T09:40:35;100761.80;;;15.82
69435;BMP180;56625;54.322;18.582;2022-10-16T09:43:41;100771.80;;;15.90
69435;BMP180;56625;54.322;18.582;2022-10-16T09:46:25;100786.00;;;15.88
69435;BMP180;56625;54.322;18.582;2022-10-16T09:49:01;100789.60;;;15.88
69435;BMP180;56625;54.322;18.582;2022-10-16T09:51:35;100787.40;;;15.80
69435;BMP180;56625;54.322;18.582;2022-10-16T09:56:37;100781.60;;;15.90
69435;BMP180;56625;54.322;18.582;2022-10-16T09:59:19;100785.60;;;16.00
69435;BMP180;56625;54.322;18.582;2022-10-16T10:01:51;100789.40;;;16.00
69435;BMP180;56625;54.322;18.582;2022-10-16T10:04:23;100785.80;;;16.00
69435;BMP180;56625;54.322;18.582;2022-10-16T10:06:56;100793.00;;;16.00
69435;BMP180;56625;54.322;18.582;2022-10-16T10:09:34;100796.20;;;16.00
69435;BMP180;56625;54.322;18.582;2022-10-16T10:12:17;100794.80;;;16.00
69435;BMP180;56625;54.322;18.582;2022-10-16T10:14:56;100796.60;;;16.00
69435;BMP180;56625;54.322;18.582;2022-10-16T10:17:27;100803.00;;;16.00
69435;BMP180;56625;54.322;18.582;2022-10-16T10:19:59;100805.40;;;16.00
69435;BMP180;56625;54.322;18.582;2022-10-16T10:22:40;100821.60;;;16.00
69435;BMP180;56625;54.322;18.582;2022-10-16T10:25:15;100818.60;;;16.00
69435;BMP180;56625;54.322;18.582;2022-10-16T10:28:13;100821.20;;;16.00
69435;BMP180;56625;54.322;18.582;2022-10-16T10:31:10;100822.60;;;16.00
69435;BMP180;56625;54.322;18.582;2022-10-16T10:33:52;100827.60;;;16.10
69435;BMP180;56625;54.322;18.582;2022-10-16T10:36:29;100828.00;;;16.10
69435;BMP180;56625;54.322;18.582;2022-10-16T10:39:27;100823.80;;;16.10
69435;BMP180;56625;54.322;18.582;2022-10-16T10:42:33;100830.20;;;16.20
69435;BMP180;56625;54.322;18.582;2022-10-16T10:50:57;100827.40;;;16.40
69435;BMP180;56625;54.322;18.582;2022-10-16T10:53:50;100824.40;;;16.42
69435;BMP180;56625;54.322;18.582;2022-10-16T10:56:42;100819.40;;;16.50
69435;BMP180;56625;54.322;18.582;2022-10-16T10:59:56;100815.80;;;16.50
69435;BMP180;56625;54.322;18.582;2022-10-16T11:05:50;100829.00;;;16.60
69435;BMP180;56625;54.322;18.582;2022-10-16T11:08:30;100824.80;;;16.60
69435;BMP180;56625;54.322;18.582;2022-10-16T11:11:14;100828.80;;;16.70
69435;BMP180;56625;54.322;18.582;2022-10-16T11:14:00;100826.40;;;16.78
69435;BMP180;56625;54.322;18.582;2022-10-16T11:16:35;100821.80;;;16.80
69435;BMP180;56625;54.322;18.582;2022-10-16T11:19:12;100812.00;;;16.90
69435;BMP180;56625;54.322;18.582;2022-10-16T11:27:58;100810.00;;;17.20
69435;BMP180;56625;54.322;18.582;2022-10-16T11:30:35;100811.00;;;17.30
69435;BMP180;56625;54.322;18.582;2022-10-16T11:36:58;100813.40;;;17.30
69435;BMP180;56625;54.322;18.582;2022-10-16T11:39:30;100805.20;;;17.30
69435;BMP180;56625;54.322;18.582;2022-10-16T11:42:21;100805.20;;;17.20
69435;BMP180;56625;54.322;18.582;2022-10-16T11:44:58;100816.60;;;17.20
69435;BMP180;56625;54.322;18.582;2022-10-16T11:47:34;100812.60;;;17.28
69435;BMP180;56625;54.322;18.582;2022-10-16T11:50:48;100816.20;;;17.30
69435;BMP180;56625;54.322;18.582;2022-10-16T11:53:42;100809.60;;;17.30
69435;BMP180;56625;54.322;18.582;2022-10-16T11:56:17;100816.00;;;17.30
69435;BMP180;56625;54.322;18.582;2022-10-16T11:58:59;100815.80;;;17.38
69435;BMP180;56625;54.322;18.582;2022-10-16T12:01:39;100818.60;;;17.40
69435;BMP180;56625;54.322;18.582;2022-10-16T12:07:12;100820.80;;;17.50
69435;BMP180;56625;54.322;18.582;2022-10-16T12:09:41;100816.40;;;17.66
69435;BMP180;56625;54.322;18.582;2022-10-16T12:12:46;100823.20;;;17.80
69435;BMP180;56625;54.322;18.582;2022-10-16T12:15:28;100823.00;;;17.90
69435;BMP180;56625;54.322;18.582;2022-10-16T12:18:23;100821.40;;;18.06
69435;BMP180;56625;54.322;18.582;2022-10-16T12:20:56;100828.80;;;18.20
69435;BMP180;56625;54.322;18.582;2022-10-16T12:23:51;100828.40;;;18.20
69435;BMP180;56625;54.322;18.582;2022-10-16T12:26:28;100831.20;;;18.30
69435;BMP180;56625;54.322;18.582;2022-10-16T12:29:40;100831.60;;;18.30
69435;BMP180;56625;54.322;18.582;2022-10-16T12:35:24;100836.80;;;18.40
69435;BMP180;56625;54.322;18.582;2022-10-16T12:37:54;100831.00;;;18.40
69435;BMP180;56625;54.322;18.582;2022-10-16T12:40:35;100837.00;;;18.48
69435;BMP180;56625;54.322;18.582;2022-10-16T12:43:46;100837.20;;;18.50
69435;BMP180;56625;54.322;18.582;2022-10-16T12:48:44;100843.20;;;18.50
69435;BMP180;56625;54.322;18.582;2022-10-16T12:51:37;100842.00;;;18.60
69435;BMP180;56625;54.322;18.582;2022-10-16T12:54:15;100851.00;;;18.70
69435;BMP180;56625;54.322;18.582;2022-10-16T13:00:32;100841.20;;;18.70
69435;BMP180;56625;54.322;18.582;2022-10-16T13:09:55;100847.20;;;19.10
69435;BMP180;56625;54.322;18.582;2022-10-16T13:12:59;100850.40;;;19.30
69435;BMP180;56625;54.322;18.582;2022-10-16T13:15:53;100847.40;;;19.40
69435;BMP180;56625;54.322;18.582;2022-10-16T13:18:50;100841.80;;;19.40
69435;BMP180;56625;54.322;18.582;2022-10-16T13:21:47;100841.00;;;19.40
69435;BMP180;56625;54.322;18.582;2022-10-16T13:27:28;100852.80;;;19.10
69435;BMP180;56625;54.322;18.582;2022-10-16T13:32:46;100861.20;;;18.76
69435;BMP180;56625;54.322;18.582;2022-10-16T13:35:25;100868.40;;;18.70
69435;BMP180;56625;54.322;18.582;2022-10-16T13:38:15;100871.80;;;18.60
69435;BMP180;56625;54.322;18.582;2022-10-16T13:40:58;100872.40;;;18.50
69435;BMP180;56625;54.322;18.582;2022-10-16T13:43:45;100879.40;;;18.48
69435;BMP180;56625;54.322;18.582;2022-10-16T13:49:01;100888.40;;;18.34
69435;BMP180;56625;54.322;18.582;2022-10-16T13:51:31;100894.20;;;18.30
69435;BMP180;56625;54.322;18.582;2022-10-16T13:53:59;100897.20;;;18.30
69435;BMP180;56625;54.322;18.582;2022-10-16T13:56:32;100895.20;;;18.20
69435;BMP180;56625;54.322;18.582;2022-10-16T13:59:20;100897.40;;;18.18
69435;BMP180;56625;54.322;18.582;2022-10-16T14:01:53;100901.00;;;18.10
69435;BMP180;56625;54.322;18.582;2022-10-16T14:04:32;100905.60;;;18.10
69435;BMP180;56625;54.322;18.582;2022-10-16T14:07:00;100908.80;;;18.00
69435;BMP180;56625;54.322;18.582;2022-10-16T14:09:30;100907.00;;;17.94
69435;BMP180;56625;54.322;18.582;2022-10-16T14:12:08;100909.60;;;17.90
69435;BMP180;56625;54.322;18.582;2022-10-16T14:14:45;100907.20;;;17.90
69435;BMP180;56625;54.322;18.582;2022-10-16T14:17:25;100915.20;;;17.90
69435;BMP180;56625;54.322;18.582;2022-10-16T14:19:58;100913.20;;;17.90
69435;BMP180;56625;54.322;18.582;2022-10-16T14:22:40;100921.60;;;17.90
69435;BMP180;56625;54.322;18.582;2022-10-16T14:25:35;100916.20;;;17.90
69435;BMP180;56625;54.322;18.582;2022-10-16T14:30:50;100923.00;;;18.00
69435;BMP180;56625;54.322;18.582;2022-10-16T14:33:31;100923.80;;;18.00
69435;BMP180;56625;54.322;18.582;2022-10-16T14:38:40;100929.60;;;18.10
69435;BMP180;56625;54.322;18.582;2022-10-16T14:41:09;100933.60;;;18.10
69435;BMP180;56625;54.322;18.582;2022-10-16T14:43:41;100937.00;;;18.20
69435;BMP180;56625;54.322;18.582;2022-10-16T14:46:16;100944.40;;;18.20
69435;BMP180;56625;54.322;18.582;2022-10-16T14:49:13;100948.00;;;18.10
69435;BMP180;56625;54.322;18.582;2022-10-16T14:51:42;100952.80;;;18.10
69435;BMP180;56625;54.322;18.582;2022-10-16T14:54:15;100956.80;;;18.10
69435;BMP180;56625;54.322;18.582;2022-10-16T14:56:51;100955.00;;;18.00
69435;BMP180;56625;54.322;18.582;2022-10-16T14:59:33;100960.40;;;17.90
69435;BMP180;56625;54.322;18.582;2022-10-16T15:02:18;100968.00;;;17.80
69435;BMP180;56625;54.322;18.582;2022-10-16T15:04:48;100962.60;;;17.82
69435;BMP180;56625;54.322;18.582;2022-10-16T15:07:17;100960.00;;;17.80
69435;BMP180;56625;54.322;18.582;2022-10-16T15:09:44;100959.60;;;17.80
69435;BMP180;56625;54.322;18.582;2022-10-16T15:12:16;100963.80;;;17.72
69435;BMP180;56625;54.322;18.582;2022-10-16T15:14:45;100964.80;;;17.70
69435;BMP180;56625;54.322;18.582;2022-10-16T15:17:15;100972.80;;;17.60
69435;BMP180;56625;54.322;18.582;2022-10-16T15:19:48;100969.20;;;17.56
69435;BMP180;56625;54.322;18.582;2022-10-16T15:22:15;100972.20;;;17.50
69435;BMP180;56625;54.322;18.582;2022-10-16T15:24:43;100975.80;;;17.40
69435;BMP180;56625;54.322;18.582;2022-10-16T15:27:11;100979.60;;;17.30
69435;BMP180;56625;54.322;18.582;2022-10-16T15:29:39;100986.60;;;17.20
69435;BMP180;56625;54.322;18.582;2022-10-16T15:32:10;100990.80;;;17.12
69435;BMP180;56625;54.322;18.582;2022-10-16T15:34:37;100993.60;;;17.10
69435;BMP180;56625;54.322;18.582;2022-10-16T15:37:05;100997.80;;;17.00
69435;BMP180;56625;54.322;18.582;2022-10-16T15:39:33;100997.80;;;17.00
69435;BMP180;56625;54.322;18.582;2022-10-16T15:42:08;101000.60;;;16.90